createdAt,value
2022-08-05T00:00:37.099Z,44.72
2022-08-05T00:03:15.862Z,46.41
2022-08-05T00:06:04.837Z,46.65
2022-08-05T00:08:35.398Z,46.39
2022-08-05T00:11:30.234Z,47.73
2022-08-05T00:14:13.006Z,47.88
2022-08-05T00:16:53.123Z,46.84
2022-08-05T00:19:23.435Z,45.76
2022-08-05T00:21:54.002Z,46.33
2022-08-05T00:24:24.649Z,44.83
2022-08-05T00:26:53.540Z,44.59
2022-08-05T00:29:22.830Z,45.59
2022-08-05T00:32:12.382Z,44.85
2022-08-05T00:35:03.775Z,45.49
2022-08-05T00:37:51.376Z,46.61
2022-08-05T00:40:27.797Z,46.45
2022-08-05T00:42:58.807Z,47.28
2022-08-05T00:45:38.970Z,46.37
2022-08-05T00:48:13.880Z,46.48
2022-08-05T00:50:44.388Z,46.55
2022-08-05T00:54:00.133Z,47.67
2022-08-05T00:56:08.211Z,47.12
2022-08-05T00:58:37.024Z,46.23
2022-08-05T01:01:08.700Z,46.62
2022-08-05T01:03:38.723Z,45.65
2022-08-05T01:06:11.424Z,45.79
2022-08-05T01:08:44.490Z,46.94
2022-08-05T01:11:22.360Z,46.50
2022-08-05T01:14:28.039Z,45.60
2022-08-05T01:17:39.894Z,47.94
2022-08-05T01:20:39.106Z,47.28
2022-08-05T01:23:34.938Z,46.89
2022-08-05T01:26:33.549Z,48.01
2022-08-05T01:29:09.192Z,47.87
2022-08-05T01:32:02.258Z,46.52
2022-08-05T01:34:38.263Z,48.54
2022-08-05T01:37:18.126Z,47.57
2022-08-05T01:39:59.138Z,47.31
2022-08-05T01:42:30.111Z,48.56
2022-08-05T01:45:02.070Z,49.83
2022-08-05T01:47:39.390Z,49.40
2022-08-05T01:50:28.534Z,49.58
2022-08-05T01:53:02.263Z,50.20
2022-08-05T01:55:32.581Z,48.67
2022-08-05T01:58:15.744Z,49.69
2022-08-05T02:00:49.483Z,50.90
2022-08-05T02:03:37.166Z,49.06
2022-08-05T02:06:33.512Z,48.74
2022-08-05T02:08:58.867Z,47.39
2022-08-05T02:11:33.625Z,47.60
2022-08-05T02:14:21.074Z,46.95
2022-08-05T02:16:53.488Z,46.44
2022-08-05T02:19:27.386Z,46.74
2022-08-05T02:22:05.455Z,47.98
2022-08-05T02:24:38.262Z,47.44
2022-08-05T02:27:10.657Z,49.52
2022-08-05T02:30:00.006Z,49.11
2022-08-05T02:32:31.922Z,49.57
2022-08-05T02:35:13.840Z,49.60
2022-08-05T02:37:47.913Z,50.50
2022-08-05T02:40:24.066Z,50.32
2022-08-05T02:42:54.271Z,48.95
2022-08-05T02:45:25.581Z,49.80
2022-08-05T02:48:07.266Z,50.30
2022-08-05T02:50:47.143Z,48.74
2022-08-05T02:53:19.461Z,49.07
2022-08-05T02:55:59.740Z,48.08
2022-08-05T02:58:30.302Z,47.97
2022-08-05T03:01:01.993Z,47.64
2022-08-05T03:03:34.165Z,47.76
2022-08-05T03:06:55.096Z,49.88
2022-08-05T03:09:17.766Z,50.13
2022-08-05T03:11:56.715Z,51.04
2022-08-05T03:14:26.320Z,50.95
2022-08-05T03:16:54.387Z,49.88
2022-08-05T03:19:33.209Z,49.96
2022-08-05T03:22:04.662Z,49.92
2022-08-05T03:24:33.666Z,49.04
2022-08-05T03:27:03.409Z,49.10
2022-08-05T03:29:45.185Z,49.87
2022-08-05T03:32:30.836Z,49.11
2022-08-05T03:34:59.791Z,50.33
2022-08-05T03:37:30.983Z,49.04
2022-08-05T03:40:13.921Z,48.95
2022-08-05T03:42:51.766Z,49.66
2022-08-05T03:45:23.049Z,49.41
2022-08-05T03:47:57.235Z,50.95
2022-08-05T03:50:33.750Z,50.81
2022-08-05T03:55:34.060Z,50.92
2022-08-05T03:56:11.034Z,51.23
2022-08-05T03:58:44.680Z,52.51
2022-08-05T04:01:14.823Z,52.50
2022-08-05T04:04:08.988Z,52.52
2022-08-05T04:06:35.393Z,52.23
2022-08-05T04:09:06.267Z,51.98
2022-08-05T04:11:50.530Z,51.24
2022-08-05T04:14:29.878Z,51.12
2022-08-05T04:17:00.209Z,50.80
2022-08-05T04:19:29.339Z,50.46
2022-08-05T04:22:09.431Z,49.82
2022-08-05T04:24:52.639Z,49.18
2022-08-05T04:27:41.496Z,48.14
2022-08-05T04:30:10.382Z,47.48
2022-08-05T04:32:38.090Z,46.35
2022-08-05T04:35:07.488Z,45.61
2022-08-05T04:38:02.070Z,44.80
2022-08-05T04:40:35.302Z,44.89
2022-08-05T04:43:04.002Z,44.27
2022-08-05T04:45:49.008Z,43.33
2022-08-05T04:48:27.876Z,43.97
2022-08-05T04:51:03.574Z,43.17
2022-08-05T04:53:40.047Z,42.03
2022-08-05T04:56:32.884Z,41.42
2022-08-05T04:58:56.711Z,41.69
2022-08-05T05:02:04.040Z,40.92
2022-08-05T05:04:12.702Z,40.53
2022-08-05T05:06:44.920Z,40.23
2022-08-05T05:09:20.046Z,39.61
2022-08-05T05:11:53.182Z,39.47
2022-08-05T05:14:27.983Z,39.14
2022-08-05T05:17:03.399Z,39.20
2022-08-05T05:19:36.917Z,39.76
2022-08-05T05:22:23.469Z,38.95
2022-08-05T05:24:59.066Z,40.73
2022-08-05T05:27:41.715Z,39.97
2022-08-05T05:30:29.624Z,40.76
2022-08-05T05:33:15.927Z,39.28
2022-08-05T05:35:48.218Z,40.13
2022-08-05T05:38:22.786Z,39.34
2022-08-05T05:40:58.512Z,39.05
2022-08-05T05:43:54.083Z,40.74
2022-08-05T05:46:17.832Z,39.19
2022-08-05T05:48:47.888Z,39.38
2022-08-05T05:51:25.691Z,38.83
2022-08-05T05:53:59.517Z,37.65
2022-08-05T05:56:33.185Z,38.13
2022-08-05T05:59:06.770Z,36.82
2022-08-05T06:01:40.188Z,36.54
2022-08-05T06:04:11.954Z,36.28
2022-08-05T06:06:47.549Z,35.92
2022-08-05T06:09:25.765Z,35.61
2022-08-05T06:12:01.491Z,35.93
2022-08-05T06:14:31.315Z,36.32
2022-08-05T06:16:59.522Z,35.63
2022-08-05T06:19:34.024Z,34.27
2022-08-05T06:22:06.406Z,34.00
2022-08-05T06:24:36.033Z,33.92
2022-08-05T06:27:03.875Z,34.50
2022-08-05T06:29:46.828Z,34.42
2022-08-05T06:32:25.565Z,33.85
2022-08-05T06:34:58.775Z,34.99
2022-08-05T06:37:57.056Z,34.22
2022-08-05T06:40:18.493Z,34.11
2022-08-05T06:42:52.326Z,32.89
2022-08-05T06:45:44.862Z,33.37
2022-08-05T06:48:50.113Z,33.37
2022-08-05T06:51:00.191Z,33.38
2022-08-05T06:53:29.180Z,33.88
2022-08-05T06:56:01.027Z,34.27
2022-08-05T06:58:36.328Z,33.00
2022-08-05T07:01:06.547Z,33.86
2022-08-05T07:03:34.839Z,33.13
2022-08-05T07:06:05.649Z,32.35
2022-08-05T07:08:47.526Z,32.55
2022-08-05T07:11:22.327Z,32.07
2022-08-05T07:14:15.400Z,31.71
2022-08-05T07:17:58.749Z,31.46
2022-08-05T07:22:29.047Z,31.38
2022-08-05T07:25:23.376Z,30.82
2022-08-05T07:27:58.180Z,30.88
2022-08-05T07:30:38.285Z,30.92
2022-08-05T07:33:15.641Z,29.83
2022-08-05T07:36:05.300Z,30.56
2022-08-05T07:38:42.745Z,30.48
2022-08-05T07:42:14.419Z,30.03
2022-08-05T07:44:14.297Z,29.94
2022-08-05T07:46:49.664Z,28.50
2022-08-05T07:49:18.828Z,28.52
2022-08-05T07:51:53.716Z,29.46
2022-08-05T07:54:31.130Z,28.71
2022-08-05T07:57:16.927Z,28.67
2022-08-05T07:59:51.915Z,27.72
2022-08-05T08:02:26.739Z,27.64
2022-08-05T08:04:59.776Z,27.31
2022-08-05T08:07:28.759Z,26.90
2022-08-05T08:09:56.860Z,26.07
2022-08-05T08:12:32.004Z,25.66
2022-08-05T08:15:13.923Z,25.22
2022-08-05T08:17:43.970Z,24.84
2022-08-05T08:20:43.383Z,24.33
2022-08-05T08:23:11.660Z,24.76
2022-08-05T08:26:00.611Z,23.85
2022-08-05T08:28:35.608Z,24.06
2022-08-05T08:31:08.265Z,23.70
2022-08-05T08:33:37.654Z,23.56
2022-08-05T08:38:55.935Z,23.47
2022-08-05T08:41:51.239Z,22.39
2022-08-05T08:45:24.181Z,22.58
2022-08-05T08:47:47.472Z,22.17
2022-08-05T08:50:07.821Z,21.75
2022-08-05T08:52:51.672Z,21.50
2022-08-05T08:55:31.907Z,20.78
2022-08-05T08:58:12.867Z,21.96
2022-08-05T09:00:45.002Z,21.66
2022-08-05T09:03:16.316Z,21.59
2022-08-05T09:06:07.775Z,21.43
2022-08-05T09:08:35.905Z,21.43
2022-08-05T09:11:12.350Z,21.77
2022-08-05T09:14:09.138Z,21.66
2022-08-05T09:16:31.292Z,20.99
2022-08-05T09:18:59.414Z,20.99
2022-08-05T09:22:22.079Z,20.61
2022-08-05T09:24:16.555Z,20.32
2022-08-05T09:26:48.770Z,19.94
2022-08-05T09:29:20.386Z,19.92
2022-08-05T09:32:40.092Z,19.48
2022-08-05T09:34:58.548Z,19.31
2022-08-05T09:38:12.055Z,19.84
2022-08-05T09:40:38.034Z,19.42
2022-08-05T09:43:10.460Z,19.73
2022-08-05T09:46:06.648Z,19.19
2022-08-05T09:48:30.902Z,19.81
2022-08-05T09:51:14.847Z,19.42
2022-08-05T09:53:53.072Z,19.70
2022-08-05T09:56:35.328Z,19.91
2022-08-05T09:59:16.813Z,19.61
2022-08-05T10:01:47.168Z,19.49
2022-08-05T10:04:17.371Z,19.29
2022-08-05T10:06:59.537Z,19.26
2022-08-05T10:09:29.301Z,19.50
2022-08-05T10:12:18.491Z,19.87
2022-08-05T10:15:22.313Z,19.46
2022-08-05T10:18:05.253Z,19.07
2022-08-05T10:20:37.575Z,18.76
2022-08-05T10:23:08.807Z,19.85
2022-08-05T10:25:50.096Z,19.52
2022-08-05T10:28:19.362Z,19.07
2022-08-05T10:32:52.563Z,19.09
2022-08-05T10:33:52.342Z,19.46
2022-08-05T10:36:23.538Z,19.46
2022-08-05T10:39:10.153Z,18.67
2022-08-05T10:41:52.757Z,19.29
2022-08-05T10:44:22.500Z,18.75
2022-08-05T10:46:54.731Z,18.57
2022-08-05T10:49:27.473Z,18.97
2022-08-05T10:52:05.170Z,18.85
2022-08-05T10:55:06.234Z,18.83
2022-08-05T10:57:34.967Z,19.31
2022-08-05T11:00:18.197Z,19.20
2022-08-05T11:03:25.258Z,18.91
2022-08-05T11:06:15.913Z,19.67
2022-08-05T11:09:16.395Z,18.38
2022-08-05T11:11:53.279Z,19.46
2022-08-05T11:14:57.718Z,19.44
2022-08-05T11:17:58.122Z,19.88
2022-08-05T11:20:51.644Z,19.64
2022-08-05T11:24:02.807Z,19.21
2022-08-05T11:26:28.610Z,19.56
2022-08-05T11:29:12.123Z,19.13
2022-08-05T11:31:57.405Z,19.66
2022-08-05T11:34:39.764Z,19.59
2022-08-05T11:38:30.297Z,19.45
2022-08-05T11:40:02.663Z,19.63
2022-08-05T11:42:40.320Z,20.08
2022-08-05T11:45:14.584Z,20.13
2022-08-05T11:47:57.911Z,19.66
2022-08-05T11:50:26.685Z,20.15
2022-08-05T11:52:57.965Z,19.83
2022-08-05T11:55:32.224Z,20.38
2022-08-05T11:58:09.239Z,20.57
2022-08-05T12:00:41.622Z,20.19
2022-08-05T12:03:29.630Z,20.49
2022-08-05T12:06:06.083Z,20.50
2022-08-05T12:08:49.889Z,20.19
2022-08-05T12:11:28.267Z,20.41
2022-08-05T12:14:10.323Z,20.37
2022-08-05T12:16:40.867Z,20.48
2022-08-05T12:20:25.960Z,20.32
2022-08-05T12:22:06.136Z,20.40
2022-08-05T12:24:43.724Z,20.17
2022-08-05T12:27:33.158Z,19.78
2022-08-05T12:30:03.252Z,20.19
2022-08-05T12:32:34.102Z,20.07
2022-08-05T12:35:06.477Z,20.26
2022-08-05T12:37:35.771Z,20.32
2022-08-05T12:40:10.821Z,20.60
2022-08-05T12:42:39.927Z,20.37
2022-08-05T12:45:09.951Z,20.26
2022-08-05T12:47:43.608Z,20.20
2022-08-05T12:50:26.627Z,19.98
2022-08-05T12:53:00.026Z,19.69
2022-08-05T12:55:32.574Z,19.79
2022-08-05T12:58:50.750Z,20.22
2022-08-05T13:01:59.712Z,20.10
2022-08-05T13:03:42.311Z,19.89
2022-08-05T13:06:16.558Z,19.52
2022-08-05T13:08:51.398Z,19.97
2022-08-05T13:12:01.669Z,19.85
2022-08-05T13:14:19.405Z,19.91
2022-08-05T13:16:56.595Z,19.93
2022-08-05T13:19:26.719Z,20.27
2022-08-05T13:21:56.787Z,20.20
2022-08-05T13:24:36.616Z,20.51
2022-08-05T13:27:17.185Z,21.14
2022-08-05T13:30:31.629Z,20.42
2022-08-05T13:32:42.149Z,20.77
2022-08-05T13:35:22.117Z,20.73
2022-08-05T13:37:55.676Z,20.68
2022-08-05T13:40:36.760Z,20.67
2022-08-05T13:43:12.144Z,20.82
2022-08-05T13:45:43.221Z,21.09
2022-08-05T13:48:58.870Z,20.90
2022-08-05T13:51:09.979Z,20.88
2022-08-05T13:53:47.720Z,20.82
2022-08-05T13:56:18.429Z,21.40
2022-08-05T13:58:52.720Z,20.82
2022-08-05T14:01:27.461Z,21.46
2022-08-05T14:04:26.618Z,20.81
2022-08-05T14:06:58.780Z,21.36
2022-08-05T14:09:46.030Z,20.93
2022-08-05T14:12:18.028Z,20.70
2022-08-05T14:15:00.426Z,21.24
2022-08-05T14:17:34.021Z,20.93
2022-08-05T14:20:04.718Z,20.81
2022-08-05T14:22:35.746Z,21.70
2022-08-05T14:25:06.472Z,21.16
2022-08-05T14:27:48.495Z,21.59
2022-08-05T14:30:20.356Z,21.61
2022-08-05T14:32:49.094Z,21.58
2022-08-05T14:35:20.775Z,20.99
2022-08-05T14:37:55.025Z,20.17
2022-08-05T14:40:24.345Z,21.45
2022-08-05T14:42:52.619Z,21.33
2022-08-05T14:45:20.305Z,21.52
2022-08-05T14:48:03.268Z,21.46
2022-08-05T14:50:36.002Z,21.12
2022-08-05T14:53:07.914Z,21.55
2022-08-05T14:55:39.568Z,21.43
2022-08-05T14:58:13.795Z,21.46
2022-08-05T15:00:58.035Z,21.49
2022-08-05T15:03:33.179Z,21.13
2022-08-05T15:06:12.889Z,21.47
2022-08-05T15:08:59.449Z,21.33
2022-08-05T15:11:51.556Z,21.23
2022-08-05T15:14:34.871Z,21.40
2022-08-05T15:17:09.746Z,21.11
2022-08-05T15:19:57.573Z,21.23
2022-08-05T15:22:26.809Z,21.07
2022-08-05T15:24:58.417Z,21.77
2022-08-05T15:27:32.145Z,21.21
2022-08-05T15:30:04.634Z,21.64
2022-08-05T15:32:33.345Z,22.44
2022-08-05T15:35:04.167Z,22.18
2022-08-05T15:38:32.815Z,22.25
2022-08-05T15:41:03.339Z,22.55
2022-08-05T15:43:19.753Z,22.69
2022-08-05T15:45:59.809Z,22.61
2022-08-05T15:48:30.146Z,22.27
2022-08-05T15:51:01.547Z,22.39
2022-08-05T15:53:38.498Z,22.54
2022-08-05T15:56:19.595Z,22.13
2022-08-05T15:58:48.934Z,21.70
2022-08-05T16:01:18.805Z,21.43
2022-08-05T16:03:50.564Z,21.89
2022-08-05T16:06:20.158Z,22.73
2022-08-05T16:08:51.300Z,22.93
2022-08-05T16:11:40.220Z,23.42
2022-08-05T16:14:17.273Z,22.85
2022-08-05T16:16:46.990Z,22.59
2022-08-05T16:19:25.857Z,22.48
2022-08-05T16:22:04.086Z,22.82
2022-08-05T16:24:40.744Z,23.07
2022-08-05T16:27:10.124Z,23.37
2022-08-05T16:29:51.129Z,23.73
2022-08-05T16:32:23.237Z,23.44
2022-08-05T16:34:58.927Z,23.59
2022-08-05T16:38:03.094Z,23.81
2022-08-05T16:40:25.153Z,23.72
2022-08-05T16:42:56.942Z,23.84
2022-08-05T16:46:07.828Z,24.32
2022-08-05T16:48:25.743Z,24.58
2022-08-05T16:51:00.545Z,23.61
2022-08-05T16:54:03.262Z,24.35
2022-08-05T16:56:16.673Z,24.35
2022-08-05T16:58:45.121Z,23.98
2022-08-05T17:01:13.484Z,24.45
2022-08-05T17:03:41.649Z,24.54
2022-08-05T17:06:10.864Z,23.96
2022-08-05T17:08:53.133Z,24.23
2022-08-05T17:11:25.143Z,25.05
2022-08-05T17:14:00.566Z,24.21
2022-08-05T17:16:38.438Z,25.08
2022-08-05T17:19:07.601Z,25.63
2022-08-05T17:21:39.538Z,26.02
2022-08-05T17:24:28.081Z,26.28
2022-08-05T17:26:57.835Z,26.14
2022-08-05T17:29:33.608Z,25.23
2022-08-05T17:32:17.790Z,25.08
2022-08-05T17:34:49.138Z,25.55
2022-08-05T17:37:40.721Z,26.29
2022-08-05T17:40:12.373Z,26.61
2022-08-05T17:42:50.586Z,25.77
2022-08-05T17:45:22.476Z,26.35
2022-08-05T17:47:56.078Z,25.74
2022-08-05T17:50:28.166Z,25.08
2022-08-05T17:53:02.026Z,24.83
2022-08-05T17:55:37.218Z,24.83
2022-08-05T17:58:09.896Z,25.07
2022-08-05T18:00:47.130Z,25.37
2022-08-05T18:03:56.449Z,25.14
2022-08-05T18:06:11.419Z,26.25
2022-08-05T18:08:44.136Z,27.26
2022-08-05T18:11:24.150Z,28.05
2022-08-05T18:14:03.631Z,27.91
2022-08-05T18:16:34.039Z,28.44
2022-08-05T18:19:03.708Z,27.70
2022-08-05T18:22:09.568Z,28.20
2022-08-05T18:24:19.407Z,28.37
2022-08-05T18:26:48.750Z,28.30
2022-08-05T18:29:16.852Z,28.20
2022-08-05T18:31:45.484Z,28.19
2022-08-05T18:34:13.220Z,28.89
2022-08-05T18:36:43.547Z,30.05
2022-08-05T18:39:42.477Z,29.62
2022-08-05T18:42:06.294Z,29.64
2022-08-05T18:44:49.239Z,29.74
2022-08-05T18:47:26.659Z,30.16
2022-08-05T18:50:15.729Z,30.54
2022-08-05T18:52:51.082Z,29.74
2022-08-05T18:55:21.514Z,30.09
2022-08-05T18:57:54.088Z,29.80
2022-08-05T19:00:31.145Z,29.63
2022-08-05T19:03:08.169Z,29.99
2022-08-05T19:06:12.091Z,30.81
2022-08-05T19:08:30.750Z,31.24
2022-08-05T19:10:59.740Z,31.44
2022-08-05T19:13:36.020Z,31.81
2022-08-05T19:16:24.449Z,32.10
2022-08-05T19:18:53.837Z,31.32
2022-08-05T19:21:29.620Z,31.24
2022-08-05T19:24:09.010Z,31.62
2022-08-05T19:26:54.517Z,31.50
2022-08-05T19:29:35.733Z,31.98
2022-08-05T19:32:08.770Z,32.79
2022-08-05T19:34:39.713Z,32.76
2022-08-05T19:37:10.099Z,33.03
2022-08-05T19:39:45.866Z,33.24
2022-08-05T19:42:35.080Z,33.26
2022-08-05T19:45:06.520Z,33.23
2022-08-05T19:47:37.677Z,34.23
2022-08-05T19:50:07.725Z,34.17
2022-08-05T19:52:39.564Z,33.59
2022-08-05T19:56:11.638Z,33.40
2022-08-05T19:58:04.114Z,35.04
2022-08-05T20:00:43.642Z,34.78
2022-08-05T20:03:11.681Z,35.45
2022-08-05T20:05:50.222Z,36.37
2022-08-05T20:08:20.383Z,36.57
2022-08-05T20:10:52.705Z,36.09
2022-08-05T20:13:30.298Z,36.98
2022-08-05T20:16:08.414Z,36.49
2022-08-05T20:18:36.988Z,36.09
2022-08-05T20:21:07.020Z,37.23
2022-08-05T20:23:39.291Z,37.05
2022-08-05T20:26:20.428Z,37.56
2022-08-05T20:28:50.906Z,37.74
2022-08-05T20:31:21.873Z,36.82
2022-08-05T20:33:51.642Z,37.88
2022-08-05T20:36:21.472Z,38.42
2022-08-05T20:38:53.494Z,38.87
2022-08-05T20:41:23.878Z,37.21
2022-08-05T20:43:58.951Z,38.05
2022-08-05T20:46:30.049Z,37.76
2022-08-05T20:48:57.704Z,37.41
2022-08-05T20:51:26.264Z,38.79
2022-08-05T20:53:57.125Z,37.82
2022-08-05T20:56:34.147Z,37.77
2022-08-05T20:59:19.062Z,39.14
2022-08-05T21:01:47.821Z,38.34
2022-08-05T21:04:19.513Z,38.81
2022-08-05T21:06:47.508Z,39.97
2022-08-05T21:09:15.989Z,40.09
2022-08-05T21:12:06.909Z,40.28
2022-08-05T21:14:35.306Z,40.96
2022-08-05T21:17:05.490Z,40.57
2022-08-05T21:19:46.743Z,39.68
2022-08-05T21:22:17.665Z,40.80
2022-08-05T21:24:49.013Z,39.24
2022-08-05T21:27:25.041Z,40.20
2022-08-05T21:29:57.048Z,39.30
2022-08-05T21:32:26.935Z,40.00
2022-08-05T21:35:16.729Z,39.78
2022-08-05T21:37:47.328Z,40.22
2022-08-05T21:40:23.308Z,39.57
2022-08-05T21:42:53.482Z,39.30
2022-08-05T21:45:24.249Z,39.91
2022-08-05T21:47:56.213Z,39.33
2022-08-05T21:50:26.366Z,39.97
2022-08-05T21:52:59.049Z,39.73
2022-08-05T21:56:01.562Z,40.75
2022-08-05T21:58:31.489Z,40.88
2022-08-05T22:01:00.391Z,40.73
2022-08-05T22:03:48.741Z,41.52
2022-08-05T22:06:22.455Z,40.63
2022-08-05T22:08:52.494Z,40.66
2022-08-05T22:11:34.407Z,39.92
2022-08-05T22:14:33.428Z,39.71
2022-08-05T22:16:56.980Z,39.79
2022-08-05T22:20:03.347Z,40.95
2022-08-05T22:22:16.098Z,41.08
2022-08-05T22:25:02.780Z,41.67
2022-08-05T22:28:11.418Z,41.90
2022-08-05T22:30:43.969Z,41.95
2022-08-05T22:33:56.787Z,40.87
2022-08-05T22:36:09.321Z,42.26
2022-08-05T22:38:37.662Z,41.94
2022-08-05T22:41:09.701Z,41.63
2022-08-05T22:43:38.420Z,42.23
2022-08-05T22:46:13.052Z,42.66
2022-08-05T22:48:49.614Z,42.60
2022-08-05T22:51:23.158Z,41.95
2022-08-05T22:54:05.762Z,42.70
2022-08-05T22:56:33.410Z,43.64
2022-08-05T22:59:03.287Z,42.26
2022-08-05T23:02:04.710Z,43.60
2022-08-05T23:04:35.885Z,43.83
2022-08-05T23:07:04.052Z,43.72
2022-08-05T23:09:57.332Z,43.79
2022-08-05T23:12:24.440Z,44.96
2022-08-05T23:14:52.328Z,45.11
2022-08-05T23:17:34.450Z,44.53
2022-08-05T23:20:10.527Z,44.64
2022-08-05T23:22:48.659Z,44.41
2022-08-05T23:25:51.863Z,45.02
2022-08-05T23:28:08.461Z,44.26
2022-08-05T23:30:40.584Z,43.64
2022-08-05T23:33:16.513Z,43.88
2022-08-05T23:35:55.878Z,44.26
2022-08-05T23:38:26.713Z,45.21
2022-08-05T23:40:54.605Z,45.21
2022-08-05T23:43:36.967Z,44.95
2022-08-05T23:46:20.130Z,44.96
2022-08-05T23:49:00.035Z,45.29
2022-08-05T23:51:54.114Z,45.42
2022-08-05T23:54:30.001Z,44.92
2022-08-05T23:57:03.821Z,43.53
